Wayne, Michigan
Current Conditions -  °F | °C
As of 5:53 PM on Friday 28 Nov 2014 (Local Time) from KDTW Reporting Station
Light Snow Light Snow  
Wind Chill: 18°   Ceiling: 4000
Heat Index: 25°   Visibility: 2.5mi
Dew Point: 21°   Wind: 6mph
Humidity: 85%   Direction: 160°SSE
Pressure: 30.18"   Gusts: NA
Location:  42.28°N, 83.38°W
Report Text: KDTW 282253Z 16005KT 2 1/2SM -SN BR BKN040 OVC065 M04/M06 A3018 RMK AO2 SFC VIS 3 SLP228 P0000 T10391061 $
Loading
Personal Weather Stations






























Interactive Weather Map New forecast layout! Learn more

10-Day Weather Forecast

Advertisements
Track Severe Weather on mobile